sensor_id;sensor_type;location;lat;lon;timestamp;pressure;altitude;pressure_sealevel;temperature;humidity
73624;BME280;61921;53.226;-1.296;2022-12-24T00:01:31;99186.35;;;7.31;98.23
73624;BME280;61921;53.226;-1.296;2022-12-24T00:03:57;99187.13;;;7.36;97.98
73624;BME280;61921;53.226;-1.296;2022-12-24T00:06:23;99188.71;;;7.38;97.86
73624;BME280;61921;53.226;-1.296;2022-12-24T00:08:48;99192.27;;;7.37;98.11
73624;BME280;61921;53.226;-1.296;2022-12-24T00:11:13;99195.60;;;7.49;97.66
73624;BME280;61921;53.226;-1.296;2022-12-24T00:13:38;99195.34;;;7.56;96.89
73624;BME280;61921;53.226;-1.296;2022-12-24T00:16:05;99196.09;;;7.46;97.19
73624;BME280;61921;53.226;-1.296;2022-12-24T00:18:29;99195.16;;;7.51;96.91
73624;BME280;61921;53.226;-1.296;2022-12-24T00:20:55;99200.17;;;7.54;97.10
73624;BME280;61921;53.226;-1.296;2022-12-24T00:23:20;99204.69;;;7.53;96.70
73624;BME280;61921;53.226;-1.296;2022-12-24T00:25:46;99204.40;;;7.45;97.13
73624;BME280;61921;53.226;-1.296;2022-12-24T00:28:12;99209.02;;;7.47;97.08
73624;BME280;61921;53.226;-1.296;2022-12-24T00:30:37;99206.76;;;7.46;96.95
73624;BME280;61921;53.226;-1.296;2022-12-24T00:33:02;99213.30;;;7.46;96.36
73624;BME280;61921;53.226;-1.296;2022-12-24T00:35:27;99214.79;;;7.43;96.62
73624;BME280;61921;53.226;-1.296;2022-12-24T00:37:52;99213.92;;;7.44;96.55
73624;BME280;61921;53.226;-1.296;2022-12-24T00:40:18;99216.12;;;7.41;96.46
73624;BME280;61921;53.226;-1.296;2022-12-24T00:42:43;99217.67;;;7.37;96.84
73624;BME280;61921;53.226;-1.296;2022-12-24T00:45:10;99220.31;;;7.42;96.75
73624;BME280;61921;53.226;-1.296;2022-12-24T00:47:34;99220.75;;;7.36;97.05
73624;BME280;61921;53.226;-1.296;2022-12-24T00:49:59;99222.22;;;7.36;97.15
73624;BME280;61921;53.226;-1.296;2022-12-24T00:52:24;99228.56;;;7.33;97.20
73624;BME280;61921;53.226;-1.296;2022-12-24T00:54:49;99228.04;;;7.28;97.45
73624;BME280;61921;53.226;-1.296;2022-12-24T00:57:15;99226.59;;;7.21;99.14
73624;BME280;61921;53.226;-1.296;2022-12-24T00:59:40;99230.94;;;7.35;99.93
73624;BME280;61921;53.226;-1.296;2022-12-24T01:02:06;99231.94;;;7.44;100.00
73624;BME280;61921;53.226;-1.296;2022-12-24T01:04:31;99230.16;;;7.63;100.00
73624;BME280;61921;53.226;-1.296;2022-12-24T01:06:56;99235.53;;;7.80;99.46
73624;BME280;61921;53.226;-1.296;2022-12-24T01:09:21;99236.39;;;7.87;99.27
73624;BME280;61921;53.226;-1.296;2022-12-24T01:11:47;99241.97;;;7.97;99.52
73624;BME280;61921;53.226;-1.296;2022-12-24T01:14:12;99240.87;;;8.09;98.96
73624;BME280;61921;53.226;-1.296;2022-12-24T01:16:37;99246.39;;;8.12;98.74
73624;BME280;61921;53.226;-1.296;2022-12-24T01:19:03;99249.06;;;8.26;98.73
73624;BME280;61921;53.226;-1.296;2022-12-24T01:21:28;99249.27;;;8.30;98.31
73624;BME280;61921;53.226;-1.296;2022-12-24T01:23:53;99247.90;;;8.26;98.39
73624;BME280;61921;53.226;-1.296;2022-12-24T01:26:19;99251.85;;;8.30;98.02
73624;BME280;61921;53.226;-1.296;2022-12-24T01:28:44;99257.00;;;8.42;97.80
73624;BME280;61921;53.226;-1.296;2022-12-24T01:31:12;99246.82;;;8.37;97.59
73624;BME280;61921;53.226;-1.296;2022-12-24T01:33:35;99250.14;;;8.34;97.63
73624;BME280;61921;53.226;-1.296;2022-12-24T01:36:01;99270.70;;;8.36;97.30
73624;BME280;61921;53.226;-1.296;2022-12-24T01:38:26;99270.61;;;8.35;97.47
73624;BME280;61921;53.226;-1.296;2022-12-24T01:40:51;99273.65;;;8.25;97.84
73624;BME280;61921;53.226;-1.296;2022-12-24T01:43:19;99275.70;;;8.21;98.02
73624;BME280;61921;53.226;-1.296;2022-12-24T01:45:47;99282.21;;;8.21;98.23
73624;BME280;61921;53.226;-1.296;2022-12-24T01:48:15;99280.39;;;8.26;97.97
73624;BME280;61921;53.226;-1.296;2022-12-24T01:50:33;99278.50;;;8.31;98.01
73624;BME280;61921;53.226;-1.296;2022-12-24T01:52:59;99273.73;;;8.31;97.37
73624;BME280;61921;53.226;-1.296;2022-12-24T01:55:25;99271.17;;;8.28;96.90
73624;BME280;61921;53.226;-1.296;2022-12-24T01:57:53;99268.93;;;8.08;97.44
73624;BME280;61921;53.226;-1.296;2022-12-24T02:00:15;99267.70;;;7.99;98.31
73624;BME280;61921;53.226;-1.296;2022-12-24T02:02:42;99258.29;;;7.99;98.71
73624;BME280;61921;53.226;-1.296;2022-12-24T02:05:09;99254.71;;;8.01;98.56
73624;BME280;61921;53.226;-1.296;2022-12-24T02:07:31;99260.42;;;7.96;99.14
73624;BME280;61921;53.226;-1.296;2022-12-24T02:09:58;99252.41;;;7.94;99.70
73624;BME280;61921;53.226;-1.296;2022-12-24T02:12:22;99256.80;;;7.87;100.00
73624;BME280;61921;53.226;-1.296;2022-12-24T02:14:47;99258.68;;;7.89;100.00
73624;BME280;61921;53.226;-1.296;2022-12-24T02:17:20;99261.82;;;7.97;99.87
73624;BME280;61921;53.226;-1.296;2022-12-24T02:19:51;99267.27;;;7.94;99.60
73624;BME280;61921;53.226;-1.296;2022-12-24T02:22:07;99276.60;;;7.92;99.45
73624;BME280;61921;53.226;-1.296;2022-12-24T02:24:51;99281.24;;;7.95;99.33
73624;BME280;61921;53.226;-1.296;2022-12-24T02:27:10;99282.10;;;8.00;98.95
73624;BME280;61921;53.226;-1.296;2022-12-24T02:31:50;99290.07;;;7.94;98.91
73624;BME280;61921;53.226;-1.296;2022-12-24T02:34:15;99281.37;;;7.90;98.67
73624;BME280;61921;53.226;-1.296;2022-12-24T02:36:40;99282.27;;;7.85;99.12
73624;BME280;61921;53.226;-1.296;2022-12-24T02:39:03;99275.28;;;7.73;99.57
73624;BME280;61921;53.226;-1.296;2022-12-24T02:41:30;99275.87;;;7.63;100.00
73624;BME280;61921;53.226;-1.296;2022-12-24T02:43:54;99279.43;;;7.62;100.00
73624;BME280;61921;53.226;-1.296;2022-12-24T02:46:19;99282.53;;;7.55;100.00
73624;BME280;61921;53.226;-1.296;2022-12-24T02:48:43;99284.83;;;7.55;100.00
73624;BME280;61921;53.226;-1.296;2022-12-24T02:51:09;99288.97;;;7.52;100.00
73624;BME280;61921;53.226;-1.296;2022-12-24T02:53:33;99295.62;;;7.47;100.00
73624;BME280;61921;53.226;-1.296;2022-12-24T02:56:11;99296.84;;;7.52;100.00
73624;BME280;61921;53.226;-1.296;2022-12-24T02:58:29;99300.56;;;7.55;100.00
73624;BME280;61921;53.226;-1.296;2022-12-24T03:00:56;99309.22;;;7.50;100.00
73624;BME280;61921;53.226;-1.296;2022-12-24T03:03:26;99305.94;;;7.59;100.00
73624;BME280;61921;53.226;-1.296;2022-12-24T03:05:45;99310.77;;;7.58;100.00
73624;BME280;61921;53.226;-1.296;2022-12-24T03:08:12;99308.64;;;7.61;99.94
73624;BME280;61921;53.226;-1.296;2022-12-24T03:10:35;99315.91;;;7.50;100.00
73624;BME280;61921;53.226;-1.296;2022-12-24T03:13:00;99320.99;;;7.53;100.00
73624;BME280;61921;53.226;-1.296;2022-12-24T03:15:24;99321.61;;;7.54;100.00
73624;BME280;61921;53.226;-1.296;2022-12-24T03:17:49;99322.99;;;7.51;100.00
73624;BME280;61921;53.226;-1.296;2022-12-24T03:20:16;99329.05;;;7.52;100.00
73624;BME280;61921;53.226;-1.296;2022-12-24T03:22:38;99326.80;;;7.54;100.00
73624;BME280;61921;53.226;-1.296;2022-12-24T03:25:04;99327.26;;;7.60;100.00
73624;BME280;61921;53.226;-1.296;2022-12-24T03:27:30;99334.49;;;7.64;100.00
73624;BME280;61921;53.226;-1.296;2022-12-24T03:29:55;99343.97;;;7.63;100.00
73624;BME280;61921;53.226;-1.296;2022-12-24T03:32:23;99348.09;;;7.56;100.00
73624;BME280;61921;53.226;-1.296;2022-12-24T03:34:45;99349.09;;;7.56;100.00
73624;BME280;61921;53.226;-1.296;2022-12-24T03:37:11;99350.82;;;7.64;100.00
73624;BME280;61921;53.226;-1.296;2022-12-24T03:39:36;99354.82;;;7.59;99.69
73624;BME280;61921;53.226;-1.296;2022-12-24T03:42:02;99353.44;;;7.55;99.97
73624;BME280;61921;53.226;-1.296;2022-12-24T03:44:27;99358.43;;;7.51;99.85
73624;BME280;61921;53.226;-1.296;2022-12-24T03:46:53;99359.75;;;7.51;100.00
73624;BME280;61921;53.226;-1.296;2022-12-24T03:49:18;99364.82;;;7.60;100.00
73624;BME280;61921;53.226;-1.296;2022-12-24T03:51:44;99364.98;;;7.59;100.00
73624;BME280;61921;53.226;-1.296;2022-12-24T03:54:09;99375.27;;;7.58;99.91
73624;BME280;61921;53.226;-1.296;2022-12-24T03:56:35;99379.94;;;7.61;99.29
73624;BME280;61921;53.226;-1.296;2022-12-24T03:59:00;99374.64;;;7.62;99.07
73624;BME280;61921;53.226;-1.296;2022-12-24T04:01:25;99378.37;;;7.56;99.44
73624;BME280;61921;53.226;-1.296;2022-12-24T04:03:51;99373.89;;;7.49;99.57
73624;BME280;61921;53.226;-1.296;2022-12-24T04:06:16;99379.05;;;7.45;99.80
73624;BME280;61921;53.226;-1.296;2022-12-24T04:08:43;99379.43;;;7.47;99.30
73624;BME280;61921;53.226;-1.296;2022-12-24T04:11:09;99384.38;;;7.43;98.96
73624;BME280;61921;53.226;-1.296;2022-12-24T04:13:33;99385.65;;;7.44;98.91
73624;BME280;61921;53.226;-1.296;2022-12-24T04:16:00;99388.27;;;7.39;99.51
73624;BME280;61921;53.226;-1.296;2022-12-24T04:18:24;99391.80;;;7.41;99.60
73624;BME280;61921;53.226;-1.296;2022-12-24T04:20:50;99394.61;;;7.42;98.86
73624;BME280;61921;53.226;-1.296;2022-12-24T04:23:14;99396.90;;;7.36;99.25
73624;BME280;61921;53.226;-1.296;2022-12-24T04:25:40;99400.48;;;7.35;99.09
73624;BME280;61921;53.226;-1.296;2022-12-24T04:28:05;99405.92;;;7.42;98.56
73624;BME280;61921;53.226;-1.296;2022-12-24T04:30:31;99409.47;;;7.37;98.43
73624;BME280;61921;53.226;-1.296;2022-12-24T04:32:56;99407.04;;;7.46;98.04
73624;BME280;61921;53.226;-1.296;2022-12-24T04:35:22;99406.07;;;7.46;97.63
73624;BME280;61921;53.226;-1.296;2022-12-24T04:37:47;99404.24;;;7.45;97.34
73624;BME280;61921;53.226;-1.296;2022-12-24T04:40:13;99408.40;;;7.41;98.06
73624;BME280;61921;53.226;-1.296;2022-12-24T04:42:38;99411.79;;;7.36;98.01
73624;BME280;61921;53.226;-1.296;2022-12-24T04:45:04;99416.80;;;7.38;98.06
73624;BME280;61921;53.226;-1.296;2022-12-24T04:47:28;99410.68;;;7.35;98.01
73624;BME280;61921;53.226;-1.296;2022-12-24T04:49:54;99411.56;;;7.36;97.78
73624;BME280;61921;53.226;-1.296;2022-12-24T04:52:19;99423.73;;;7.37;97.83
73624;BME280;61921;53.226;-1.296;2022-12-24T04:54:45;99427.34;;;7.38;97.65
73624;BME280;61921;53.226;-1.296;2022-12-24T04:57:10;99429.92;;;7.29;97.53
73624;BME280;61921;53.226;-1.296;2022-12-24T04:59:36;99426.68;;;7.38;97.94
73624;BME280;61921;53.226;-1.296;2022-12-24T05:02:01;99426.53;;;7.38;97.40
73624;BME280;61921;53.226;-1.296;2022-12-24T05:04:27;99425.16;;;7.41;97.20
73624;BME280;61921;53.226;-1.296;2022-12-24T05:06:52;99423.85;;;7.48;96.99
73624;BME280;61921;53.226;-1.296;2022-12-24T05:09:18;99426.49;;;7.42;96.77
73624;BME280;61921;53.226;-1.296;2022-12-24T05:11:43;99424.88;;;7.45;96.56
73624;BME280;61921;53.226;-1.296;2022-12-24T05:14:09;99428.04;;;7.45;96.51
73624;BME280;61921;53.226;-1.296;2022-12-24T05:16:34;99423.73;;;7.40;96.25
73624;BME280;61921;53.226;-1.296;2022-12-24T05:19:00;99425.84;;;7.39;96.14
73624;BME280;61921;53.226;-1.296;2022-12-24T05:21:25;99433.64;;;7.39;95.72
73624;BME280;61921;53.226;-1.296;2022-12-24T05:23:51;99442.16;;;7.41;95.50
73624;BME280;61921;53.226;-1.296;2022-12-24T05:26:18;99443.86;;;7.42;95.13
73624;BME280;61921;53.226;-1.296;2022-12-24T05:28:42;99443.72;;;7.45;95.34
73624;BME280;61921;53.226;-1.296;2022-12-24T05:31:07;99450.73;;;7.52;95.07
73624;BME280;61921;53.226;-1.296;2022-12-24T05:33:33;99450.15;;;7.47;94.91
73624;BME280;61921;53.226;-1.296;2022-12-24T05:35:58;99450.68;;;7.54;95.07
73624;BME280;61921;53.226;-1.296;2022-12-24T05:38:23;99456.70;;;7.42;94.90
73624;BME280;61921;53.226;-1.296;2022-12-24T05:40:49;99466.98;;;7.40;94.94
73624;BME280;61921;53.226;-1.296;2022-12-24T05:43:14;99468.91;;;7.44;94.76
73624;BME280;61921;53.226;-1.296;2022-12-24T05:45:40;99475.87;;;7.45;94.75
73624;BME280;61921;53.226;-1.296;2022-12-24T05:48:05;99479.27;;;7.43;94.68
73624;BME280;61921;53.226;-1.296;2022-12-24T05:50:31;99478.98;;;7.49;94.27
73624;BME280;61921;53.226;-1.296;2022-12-24T05:52:56;99486.07;;;7.47;94.40
73624;BME280;61921;53.226;-1.296;2022-12-24T05:55:22;99490.54;;;7.49;94.03
73624;BME280;61921;53.226;-1.296;2022-12-24T05:57:47;99493.82;;;7.50;93.88
73624;BME280;61921;53.226;-1.296;2022-12-24T06:00:13;99491.38;;;7.55;93.53
73624;BME280;61921;53.226;-1.296;2022-12-24T06:02:38;99493.22;;;7.57;93.33
73624;BME280;61921;53.226;-1.296;2022-12-24T06:05:04;99494.44;;;7.60;92.86
73624;BME280;61921;53.226;-1.296;2022-12-24T06:07:29;99500.06;;;7.58;92.75
73624;BME280;61921;53.226;-1.296;2022-12-24T06:09:54;99499.37;;;7.55;92.72
73624;BME280;61921;53.226;-1.296;2022-12-24T06:12:20;99499.29;;;7.49;92.85
73624;BME280;61921;53.226;-1.296;2022-12-24T06:14:45;99500.94;;;7.46;92.76
73624;BME280;61921;53.226;-1.296;2022-12-24T06:17:11;99505.89;;;7.42;92.62
73624;BME280;61921;53.226;-1.296;2022-12-24T06:19:36;99509.86;;;7.30;92.74
73624;BME280;61921;53.226;-1.296;2022-12-24T06:22:02;99522.11;;;7.28;92.75
73624;BME280;61921;53.226;-1.296;2022-12-24T06:24:27;99526.82;;;7.26;93.41
73624;BME280;61921;53.226;-1.296;2022-12-24T06:26:53;99527.38;;;7.16;93.66
73624;BME280;61921;53.226;-1.296;2022-12-24T06:29:18;99529.46;;;7.09;93.84
73624;BME280;61921;53.226;-1.296;2022-12-24T06:31:44;99530.17;;;7.09;93.74
73624;BME280;61921;53.226;-1.296;2022-12-24T06:34:09;99531.06;;;7.10;93.41
73624;BME280;61921;53.226;-1.296;2022-12-24T06:36:35;99528.98;;;7.05;93.94
73624;BME280;61921;53.226;-1.296;2022-12-24T06:39:00;99528.41;;;6.97;94.15
73624;BME280;61921;53.226;-1.296;2022-12-24T06:41:25;99535.26;;;6.97;94.29
73624;BME280;61921;53.226;-1.296;2022-12-24T06:43:52;99539.04;;;6.91;94.54
73624;BME280;61921;53.226;-1.296;2022-12-24T06:46:17;99544.06;;;6.84;94.23
73624;BME280;61921;53.226;-1.296;2022-12-24T06:48:43;99553.69;;;6.89;94.35
73624;BME280;61921;53.226;-1.296;2022-12-24T06:51:08;99554.20;;;6.84;94.90
73624;BME280;61921;53.226;-1.296;2022-12-24T06:53:33;99560.88;;;6.89;94.47
73624;BME280;61921;53.226;-1.296;2022-12-24T06:56:02;99565.02;;;6.91;94.60
73624;BME280;61921;53.226;-1.296;2022-12-24T06:58:24;99568.81;;;6.90;93.84
73624;BME280;61921;53.226;-1.296;2022-12-24T07:00:49;99564.48;;;6.81;94.27
73624;BME280;61921;53.226;-1.296;2022-12-24T07:03:15;99560.30;;;6.79;94.69
73624;BME280;61921;53.226;-1.296;2022-12-24T07:05:40;99562.08;;;6.87;93.88
73624;BME280;61921;53.226;-1.296;2022-12-24T07:08:07;99572.20;;;6.78;94.19
73624;BME280;61921;53.226;-1.296;2022-12-24T07:10:33;99574.69;;;6.77;94.29
73624;BME280;61921;53.226;-1.296;2022-12-24T07:12:57;99581.23;;;6.79;94.40
73624;BME280;61921;53.226;-1.296;2022-12-24T07:15:22;99584.10;;;6.68;95.79
73624;BME280;61921;53.226;-1.296;2022-12-24T07:17:48;99590.97;;;6.66;95.90
73624;BME280;61921;53.226;-1.296;2022-12-24T07:20:14;99592.72;;;6.62;96.34
73624;BME280;61921;53.226;-1.296;2022-12-24T07:22:39;99595.65;;;6.57;96.80
73624;BME280;61921;53.226;-1.296;2022-12-24T07:25:05;99599.61;;;6.57;96.68
73624;BME280;61921;53.226;-1.296;2022-12-24T07:27:30;99597.08;;;6.56;96.66
73624;BME280;61921;53.226;-1.296;2022-12-24T07:29:55;99600.89;;;6.55;96.91
73624;BME280;61921;53.226;-1.296;2022-12-24T07:32:20;99591.11;;;6.55;97.01
73624;BME280;61921;53.226;-1.296;2022-12-24T07:34:46;99593.81;;;6.54;97.59
73624;BME280;61921;53.226;-1.296;2022-12-24T07:37:11;99594.94;;;6.59;97.34
73624;BME280;61921;53.226;-1.296;2022-12-24T07:39:37;99595.80;;;6.63;96.75
73624;BME280;61921;53.226;-1.296;2022-12-24T07:42:03;99604.33;;;6.65;96.87
73624;BME280;61921;53.226;-1.296;2022-12-24T07:44:28;99607.38;;;6.63;96.85
73624;BME280;61921;53.226;-1.296;2022-12-24T07:46:53;99604.11;;;6.64;97.02
73624;BME280;61921;53.226;-1.296;2022-12-24T07:49:18;99603.99;;;6.69;96.78
73624;BME280;61921;53.226;-1.296;2022-12-24T07:51:44;99605.37;;;6.72;96.92
73624;BME280;61921;53.226;-1.296;2022-12-24T07:54:09;99606.97;;;6.76;96.59
73624;BME280;61921;53.226;-1.296;2022-12-24T07:56:35;99605.15;;;6.72;97.16
73624;BME280;61921;53.226;-1.296;2022-12-24T07:59:00;99608.91;;;6.77;96.81
73624;BME280;61921;53.226;-1.296;2022-12-24T08:01:26;99612.84;;;6.76;96.86
73624;BME280;61921;53.226;-1.296;2022-12-24T08:03:51;99616.90;;;6.78;97.48
73624;BME280;61921;53.226;-1.296;2022-12-24T08:06:16;99620.18;;;6.87;96.86
73624;BME280;61921;53.226;-1.296;2022-12-24T08:08:42;99624.86;;;6.91;96.73
73624;BME280;61921;53.226;-1.296;2022-12-24T08:11:08;99626.52;;;6.96;96.62
73624;BME280;61921;53.226;-1.296;2022-12-24T08:13:33;99633.11;;;6.95;96.47
73624;BME280;61921;53.226;-1.296;2022-12-24T08:15:59;99637.06;;;7.06;95.95
73624;BME280;61921;53.226;-1.296;2022-12-24T08:18:24;99638.08;;;7.05;95.90
73624;BME280;61921;53.226;-1.296;2022-12-24T08:20:50;99638.64;;;7.10;95.51
73624;BME280;61921;53.226;-1.296;2022-12-24T08:23:15;99640.11;;;7.16;94.86
73624;BME280;61921;53.226;-1.296;2022-12-24T08:25:41;99644.97;;;7.17;94.78
73624;BME280;61921;53.226;-1.296;2022-12-24T08:28:05;99647.51;;;7.15;94.76
73624;BME280;61921;53.226;-1.296;2022-12-24T08:30:31;99649.26;;;7.24;93.85
73624;BME280;61921;53.226;-1.296;2022-12-24T08:32:56;99654.28;;;7.17;93.62
73624;BME280;61921;53.226;-1.296;2022-12-24T08:35:22;99659.41;;;7.07;93.88
73624;BME280;61921;53.226;-1.296;2022-12-24T08:37:47;99658.78;;;6.98;94.08
73624;BME280;61921;53.226;-1.296;2022-12-24T08:40:13;99660.99;;;6.87;94.39
73624;BME280;61921;53.226;-1.296;2022-12-24T08:42:38;99662.79;;;6.85;94.76
73624;BME280;61921;53.226;-1.296;2022-12-24T08:45:06;99659.16;;;6.80;95.02
73624;BME280;61921;53.226;-1.296;2022-12-24T08:47:29;99660.02;;;6.83;94.67
73624;BME280;61921;53.226;-1.296;2022-12-24T08:49:55;99660.11;;;6.79;94.85
73624;BME280;61921;53.226;-1.296;2022-12-24T08:52:20;99662.67;;;6.73;95.03
73624;BME280;61921;53.226;-1.296;2022-12-24T08:54:46;99662.09;;;6.66;95.30
73624;BME280;61921;53.226;-1.296;2022-12-24T08:57:11;99661.03;;;6.59;95.71
73624;BME280;61921;53.226;-1.296;2022-12-24T08:59:37;99660.76;;;6.63;95.57
73624;BME280;61921;53.226;-1.296;2022-12-24T09:02:02;99662.23;;;6.65;95.49
73624;BME280;61921;53.226;-1.296;2022-12-24T09:04:28;99671.00;;;6.61;95.83
73624;BME280;61921;53.226;-1.296;2022-12-24T09:06:53;99683.02;;;6.60;96.01
73624;BME280;61921;53.226;-1.296;2022-12-24T09:09:19;99688.13;;;6.61;96.34
73624;BME280;61921;53.226;-1.296;2022-12-24T09:11:44;99691.03;;;6.65;96.24
73624;BME280;61921;53.226;-1.296;2022-12-24T09:14:10;99700.17;;;6.66;96.34
73624;BME280;61921;53.226;-1.296;2022-12-24T09:16:35;99706.30;;;6.63;96.57
73624;BME280;61921;53.226;-1.296;2022-12-24T09:19:01;99703.10;;;6.64;96.73
73624;BME280;61921;53.226;-1.296;2022-12-24T09:21:26;99698.26;;;6.62;96.66
73624;BME280;61921;53.226;-1.296;2022-12-24T09:23:52;99699.70;;;6.63;96.73
73624;BME280;61921;53.226;-1.296;2022-12-24T09:26:19;99702.06;;;6.64;96.90
73624;BME280;61921;53.226;-1.296;2022-12-24T09:28:44;99709.37;;;6.71;96.45
73624;BME280;61921;53.226;-1.296;2022-12-24T09:31:09;99712.72;;;6.78;96.31
73624;BME280;61921;53.226;-1.296;2022-12-24T09:33:36;99716.55;;;6.88;95.65
73624;BME280;61921;53.226;-1.296;2022-12-24T09:36:00;99712.49;;;6.89;95.47
73624;BME280;61921;53.226;-1.296;2022-12-24T09:38:25;99707.43;;;6.91;95.80
73624;BME280;61921;53.226;-1.296;2022-12-24T09:40:51;99710.51;;;6.94;96.18
73624;BME280;61921;53.226;-1.296;2022-12-24T09:43:18;99704.35;;;7.10;95.80
73624;BME280;61921;53.226;-1.296;2022-12-24T09:45:47;99705.73;;;7.09;96.00
73624;BME280;61921;53.226;-1.296;2022-12-24T09:48:11;99708.36;;;7.17;95.40
73624;BME280;61921;53.226;-1.296;2022-12-24T09:50:38;99707.71;;;7.21;95.51
73624;BME280;61921;53.226;-1.296;2022-12-24T09:53:02;99711.78;;;7.26;95.79
73624;BME280;61921;53.226;-1.296;2022-12-24T09:55:27;99714.54;;;7.32;95.51
73624;BME280;61921;53.226;-1.296;2022-12-24T09:57:51;99718.83;;;7.33;95.53
73624;BME280;61921;53.226;-1.296;2022-12-24T10:00:19;99715.29;;;7.52;95.02
73624;BME280;61921;53.226;-1.296;2022-12-24T10:02:40;99723.85;;;7.48;94.87
73624;BME280;61921;53.226;-1.296;2022-12-24T10:05:12;99722.25;;;7.53;94.97
73624;BME280;61921;53.226;-1.296;2022-12-24T10:07:36;99730.26;;;7.46;95.38
73624;BME280;61921;53.226;-1.296;2022-12-24T10:10:02;99730.32;;;7.48;95.50
73624;BME280;61921;53.226;-1.296;2022-12-24T10:12:26;99737.24;;;7.50;95.68
73624;BME280;61921;53.226;-1.296;2022-12-24T10:14:56;99733.32;;;7.50;95.43
73624;BME280;61921;53.226;-1.296;2022-12-24T10:17:25;99734.30;;;7.50;95.62
73624;BME280;61921;53.226;-1.296;2022-12-24T10:19:42;99735.30;;;7.61;95.53
73624;BME280;61921;53.226;-1.296;2022-12-24T10:22:11;99740.10;;;7.66;95.16
73624;BME280;61921;53.226;-1.296;2022-12-24T10:24:36;99746.62;;;7.74;95.40
73624;BME280;61921;53.226;-1.296;2022-12-24T10:26:57;99743.82;;;7.70;94.96
73624;BME280;61921;53.226;-1.296;2022-12-24T10:29:24;99750.27;;;7.83;95.02
73624;BME280;61921;53.226;-1.296;2022-12-24T10:31:52;99753.27;;;7.89;94.75
73624;BME280;61921;53.226;-1.296;2022-12-24T10:34:14;99754.65;;;7.98;94.70
73624;BME280;61921;53.226;-1.296;2022-12-24T10:36:37;99759.12;;;7.98;94.45
73624;BME280;61921;53.226;-1.296;2022-12-24T10:39:02;99759.99;;;8.13;94.34
73624;BME280;61921;53.226;-1.296;2022-12-24T10:41:27;99761.67;;;8.25;93.93
73624;BME280;61921;53.226;-1.296;2022-12-24T10:43:53;99767.51;;;8.38;93.65
73624;BME280;61921;53.226;-1.296;2022-12-24T10:46:20;99766.98;;;8.44;93.25
73624;BME280;61921;53.226;-1.296;2022-12-24T10:48:48;99766.41;;;8.40;93.27
73624;BME280;61921;53.226;-1.296;2022-12-24T10:51:13;99768.00;;;8.60;92.81
73624;BME280;61921;53.226;-1.296;2022-12-24T10:53:41;99762.40;;;8.66;92.32
73624;BME280;61921;53.226;-1.296;2022-12-24T10:56:03;99767.48;;;8.61;92.04
73624;BME280;61921;53.226;-1.296;2022-12-24T10:58:25;99764.56;;;8.67;92.07
73624;BME280;61921;53.226;-1.296;2022-12-24T11:00:52;99770.47;;;8.65;91.95
73624;BME280;61921;53.226;-1.296;2022-12-24T11:03:23;99766.48;;;8.64;92.34
73624;BME280;61921;53.226;-1.296;2022-12-24T11:05:42;99758.67;;;8.80;92.22
73624;BME280;61921;53.226;-1.296;2022-12-24T11:08:15;99757.61;;;8.92;90.78
73624;BME280;61921;53.226;-1.296;2022-12-24T11:10:35;99761.14;;;8.81;90.81
73624;BME280;61921;53.226;-1.296;2022-12-24T11:12:57;99760.40;;;8.87;91.47
73624;BME280;61921;53.226;-1.296;2022-12-24T11:15:25;99762.03;;;8.79;91.08
73624;BME280;61921;53.226;-1.296;2022-12-24T11:17:52;99759.29;;;8.79;91.32
73624;BME280;61921;53.226;-1.296;2022-12-24T11:20:16;99757.27;;;8.84;90.68
73624;BME280;61921;53.226;-1.296;2022-12-24T11:22:38;99758.66;;;8.93;90.75
73624;BME280;61921;53.226;-1.296;2022-12-24T11:25:05;99756.28;;;9.18;90.92
73624;BME280;61921;53.226;-1.296;2022-12-24T11:27:33;99755.18;;;9.16;89.84
73624;BME280;61921;53.226;-1.296;2022-12-24T11:32:21;99751.77;;;9.12;89.88
73624;BME280;61921;53.226;-1.296;2022-12-24T11:34:45;99753.81;;;9.12;90.15
73624;BME280;61921;53.226;-1.296;2022-12-24T11:37:16;99749.47;;;9.20;90.37
73624;BME280;61921;53.226;-1.296;2022-12-24T11:39:39;99742.78;;;9.26;89.01
73624;BME280;61921;53.226;-1.296;2022-12-24T11:42:01;99733.52;;;9.17;89.63
73624;BME280;61921;53.226;-1.296;2022-12-24T11:44:27;99736.39;;;9.18;89.66
73624;BME280;61921;53.226;-1.296;2022-12-24T11:46:53;99731.22;;;9.17;89.38
73624;BME280;61921;53.226;-1.296;2022-12-24T11:49:23;99729.61;;;9.24;90.01
73624;BME280;61921;53.226;-1.296;2022-12-24T11:54:13;99727.46;;;9.32;89.93
73624;BME280;61921;53.226;-1.296;2022-12-24T11:56:38;99724.85;;;9.45;89.09
73624;BME280;61921;53.226;-1.296;2022-12-24T11:59:06;99729.75;;;9.34;88.91
73624;BME280;61921;53.226;-1.296;2022-12-24T12:01:26;99729.92;;;9.40;89.09
73624;BME280;61921;53.226;-1.296;2022-12-24T12:03:52;99727.94;;;9.62;89.02
73624;BME280;61921;53.226;-1.296;2022-12-24T12:06:23;99731.31;;;9.56;88.12
73624;BME280;61921;53.226;-1.296;2022-12-24T12:08:40;99733.28;;;9.45;88.58
73624;BME280;61921;53.226;-1.296;2022-12-24T12:11:09;99730.65;;;9.57;88.95
73624;BME280;61921;53.226;-1.296;2022-12-24T12:13:31;99733.32;;;9.47;89.89
73624;BME280;61921;53.226;-1.296;2022-12-24T12:16:04;99734.16;;;9.38;89.97
73624;BME280;61921;53.226;-1.296;2022-12-24T12:18:25;99729.02;;;9.33;90.24
73624;BME280;61921;53.226;-1.296;2022-12-24T12:20:50;99728.86;;;9.36;90.45
73624;BME280;61921;53.226;-1.296;2022-12-24T12:23:15;99727.28;;;9.34;90.59
73624;BME280;61921;53.226;-1.296;2022-12-24T12:25:43;99728.34;;;9.26;91.47
73624;BME280;61921;53.226;-1.296;2022-12-24T12:28:10;99722.19;;;9.14;91.64
73624;BME280;61921;53.226;-1.296;2022-12-24T12:30:30;99719.26;;;9.22;91.65
73624;BME280;61921;53.226;-1.296;2022-12-24T12:32:59;99720.77;;;9.23;91.62
73624;BME280;61921;53.226;-1.296;2022-12-24T12:35:24;99713.96;;;9.17;91.86
73624;BME280;61921;53.226;-1.296;2022-12-24T12:37:50;99710.95;;;9.25;91.91
73624;BME280;61921;53.226;-1.296;2022-12-24T12:40:13;99707.29;;;9.32;91.67
73624;BME280;61921;53.226;-1.296;2022-12-24T12:42:37;99705.48;;;9.34;91.72
73624;BME280;61921;53.226;-1.296;2022-12-24T12:45:15;99701.11;;;9.42;91.61
73624;BME280;61921;53.226;-1.296;2022-12-24T12:47:39;99697.32;;;9.46;91.59
73624;BME280;61921;53.226;-1.296;2022-12-24T12:49:57;99697.92;;;9.46;91.58
73624;BME280;61921;53.226;-1.296;2022-12-24T12:52:24;99696.11;;;9.38;91.67
73624;BME280;61921;53.226;-1.296;2022-12-24T12:54:53;99703.73;;;9.49;92.28
73624;BME280;61921;53.226;-1.296;2022-12-24T12:57:11;99702.74;;;9.53;91.86